Goodsprings, Alabama
Current Conditions -  °F | °C
As of 10:15 PM on Tuesday 27 Jan 2015 (Local Time) from KJFX Reporting Station
Clear Clear  
Wind Chill: 36°   Ceiling: Unl
Heat Index: 41°   Visibility: 10mi
Dew Point: 34°   Wind: 8mph
Humidity: 76%   Direction: 30°NNE
Pressure: 30.2"   Gusts: NA
Location:  33.67°N, 87.23°W
Report Text: KJFX 280415Z AUTO 03007KT 10SM CLR 05/01 A3020 RMK A02 P-128
Loading
Personal Weather Stations






























Interactive Weather Map New forecast layout! Learn more

10-Day Weather Forecast

Advertisements
Track Severe Weather on mobile